sensor_id;sensor_type;location;lat;lon;timestamp;P1;durP1;ratioP1;P2;durP2;ratioP2
19543;SDS011;9917;51.256;7.152;2023-07-20T00:01:30;9.02;;;4.30;;
19543;SDS011;9917;51.256;7.152;2023-07-20T00:03:57;8.07;;;4.40;;
19543;SDS011;9917;51.256;7.152;2023-07-20T00:06:23;8.98;;;5.20;;
19543;SDS011;9917;51.256;7.152;2023-07-20T00:08:50;8.77;;;4.68;;
19543;SDS011;9917;51.256;7.152;2023-07-20T00:11:16;13.77;;;4.80;;
19543;SDS011;9917;51.256;7.152;2023-07-20T00:13:41;7.30;;;5.22;;
19543;SDS011;9917;51.256;7.152;2023-07-20T00:16:07;10.55;;;5.68;;
19543;SDS011;9917;51.256;7.152;2023-07-20T00:18:33;11.27;;;5.40;;
19543;SDS011;9917;51.256;7.152;2023-07-20T00:21:00;12.32;;;5.45;;
19543;SDS011;9917;51.256;7.152;2023-07-20T00:23:26;9.63;;;5.38;;
19543;SDS011;9917;51.256;7.152;2023-07-20T00:25:52;8.07;;;5.05;;
19543;SDS011;9917;51.256;7.152;2023-07-20T00:28:18;13.15;;;6.03;;
19543;SDS011;9917;51.256;7.152;2023-07-20T00:30:44;9.68;;;5.53;;
19543;SDS011;9917;51.256;7.152;2023-07-20T00:33:10;9.93;;;5.63;;
19543;SDS011;9917;51.256;7.152;2023-07-20T00:35:37;11.35;;;6.50;;
19543;SDS011;9917;51.256;7.152;2023-07-20T00:38:04;11.35;;;6.10;;
19543;SDS011;9917;51.256;7.152;2023-07-20T00:40:35;9.82;;;6.03;;
19543;SDS011;9917;51.256;7.152;2023-07-20T00:43:01;13.20;;;6.28;;
19543;SDS011;9917;51.256;7.152;2023-07-20T00:45:27;10.20;;;6.03;;
19543;SDS011;9917;51.256;7.152;2023-07-20T00:47:54;9.13;;;6.00;;
19543;SDS011;9917;51.256;7.152;2023-07-20T00:50:20;10.02;;;6.20;;
19543;SDS011;9917;51.256;7.152;2023-07-20T00:52:46;8.70;;;5.65;;
19543;SDS011;9917;51.256;7.152;2023-07-20T00:55:13;11.73;;;6.38;;
19543;SDS011;9917;51.256;7.152;2023-07-20T00:57:39;8.93;;;5.78;;
19543;SDS011;9917;51.256;7.152;2023-07-20T01:00:05;10.45;;;5.95;;
19543;SDS011;9917;51.256;7.152;2023-07-20T01:02:32;10.35;;;5.45;;
19543;SDS011;9917;51.256;7.152;2023-07-20T01:04:58;11.52;;;5.75;;
19543;SDS011;9917;51.256;7.152;2023-07-20T01:07:25;11.98;;;6.20;;
19543;SDS011;9917;51.256;7.152;2023-07-20T01:09:59;12.43;;;6.43;;
19543;SDS011;9917;51.256;7.152;2023-07-20T01:12:32;33.22;;;19.85;;
19543;SDS011;9917;51.256;7.152;2023-07-20T01:15:06;14.20;;;9.10;;
19543;SDS011;9917;51.256;7.152;2023-07-20T01:17:32;11.07;;;6.68;;
19543;SDS011;9917;51.256;7.152;2023-07-20T01:19:58;10.45;;;6.10;;
19543;SDS011;9917;51.256;7.152;2023-07-20T01:22:29;11.23;;;6.22;;
19543;SDS011;9917;51.256;7.152;2023-07-20T01:25:14;9.73;;;5.30;;
19543;SDS011;9917;51.256;7.152;2023-07-20T01:28:06;10.05;;;5.53;;
19543;SDS011;9917;51.256;7.152;2023-07-20T01:30:52;9.73;;;5.20;;
19543;SDS011;9917;51.256;7.152;2023-07-20T01:33:25;9.05;;;5.57;;
19543;SDS011;9917;51.256;7.152;2023-07-20T01:35:53;6.55;;;4.53;;
19543;SDS011;9917;51.256;7.152;2023-07-20T01:38:21;9.25;;;5.50;;
19543;SDS011;9917;51.256;7.152;2023-07-20T01:40:48;6.93;;;4.70;;
19543;SDS011;9917;51.256;7.152;2023-07-20T01:43:15;7.15;;;4.63;;
19543;SDS011;9917;51.256;7.152;2023-07-20T01:45:41;8.73;;;4.70;;
19543;SDS011;9917;51.256;7.152;2023-07-20T01:48:07;7.90;;;4.53;;
19543;SDS011;9917;51.256;7.152;2023-07-20T01:50:34;9.35;;;4.22;;
19543;SDS011;9917;51.256;7.152;2023-07-20T01:53:00;8.20;;;4.25;;
19543;SDS011;9917;51.256;7.152;2023-07-20T01:55:26;8.23;;;5.35;;
19543;SDS011;9917;51.256;7.152;2023-07-20T01:57:52;7.43;;;4.07;;
19543;SDS011;9917;51.256;7.152;2023-07-20T02:00:18;6.43;;;3.72;;
19543;SDS011;9917;51.256;7.152;2023-07-20T02:02:43;9.57;;;4.47;;
19543;SDS011;9917;51.256;7.152;2023-07-20T02:05:09;6.65;;;4.15;;
19543;SDS011;9917;51.256;7.152;2023-07-20T02:07:37;9.63;;;4.32;;
19543;SDS011;9917;51.256;7.152;2023-07-20T02:10:03;8.32;;;3.70;;
19543;SDS011;9917;51.256;7.152;2023-07-20T02:12:29;6.57;;;3.72;;
19543;SDS011;9917;51.256;7.152;2023-07-20T02:14:55;7.57;;;4.35;;
19543;SDS011;9917;51.256;7.152;2023-07-20T02:17:20;5.93;;;4.45;;
19543;SDS011;9917;51.256;7.152;2023-07-20T02:19:46;7.75;;;4.18;;
19543;SDS011;9917;51.256;7.152;2023-07-20T02:22:12;6.97;;;4.30;;
19543;SDS011;9917;51.256;7.152;2023-07-20T02:24:40;7.90;;;4.13;;
19543;SDS011;9917;51.256;7.152;2023-07-20T02:27:05;8.38;;;3.72;;
19543;SDS011;9917;51.256;7.152;2023-07-20T02:29:31;8.88;;;4.40;;
19543;SDS011;9917;51.256;7.152;2023-07-20T02:31:57;11.88;;;4.72;;
19543;SDS011;9917;51.256;7.152;2023-07-20T02:34:23;7.43;;;4.20;;
19543;SDS011;9917;51.256;7.152;2023-07-20T02:36:49;8.00;;;4.03;;
19543;SDS011;9917;51.256;7.152;2023-07-20T02:39:15;8.25;;;3.70;;
19543;SDS011;9917;51.256;7.152;2023-07-20T02:41:42;6.55;;;3.65;;
19543;SDS011;9917;51.256;7.152;2023-07-20T02:44:08;6.22;;;3.78;;
19543;SDS011;9917;51.256;7.152;2023-07-20T02:46:34;8.57;;;4.60;;
19543;SDS011;9917;51.256;7.152;2023-07-20T02:49:00;8.73;;;4.40;;
19543;SDS011;9917;51.256;7.152;2023-07-20T02:51:25;8.20;;;4.55;;
19543;SDS011;9917;51.256;7.152;2023-07-20T02:53:51;7.32;;;4.50;;
19543;SDS011;9917;51.256;7.152;2023-07-20T02:56:17;8.25;;;4.40;;
19543;SDS011;9917;51.256;7.152;2023-07-20T02:58:45;9.20;;;4.90;;
19543;SDS011;9917;51.256;7.152;2023-07-20T03:01:10;8.40;;;4.53;;
19543;SDS011;9917;51.256;7.152;2023-07-20T03:03:36;8.48;;;4.43;;
19543;SDS011;9917;51.256;7.152;2023-07-20T03:06:02;5.78;;;3.83;;
19543;SDS011;9917;51.256;7.152;2023-07-20T03:08:28;7.78;;;4.20;;
19543;SDS011;9917;51.256;7.152;2023-07-20T03:10:54;9.85;;;6.53;;
19543;SDS011;9917;51.256;7.152;2023-07-20T03:13:20;6.95;;;3.80;;
19543;SDS011;9917;51.256;7.152;2023-07-20T03:15:47;6.97;;;4.20;;
19543;SDS011;9917;51.256;7.152;2023-07-20T03:18:13;7.63;;;3.88;;
19543;SDS011;9917;51.256;7.152;2023-07-20T03:20:39;10.63;;;4.97;;
19543;SDS011;9917;51.256;7.152;2023-07-20T03:23:05;5.90;;;4.13;;
19543;SDS011;9917;51.256;7.152;2023-07-20T03:25:31;6.82;;;4.38;;
19543;SDS011;9917;51.256;7.152;2023-07-20T03:27:57;7.15;;;4.07;;
19543;SDS011;9917;51.256;7.152;2023-07-20T03:30:23;6.22;;;4.20;;
19543;SDS011;9917;51.256;7.152;2023-07-20T03:32:50;9.50;;;5.07;;
19543;SDS011;9917;51.256;7.152;2023-07-20T03:35:16;6.15;;;3.92;;
19543;SDS011;9917;51.256;7.152;2023-07-20T03:37:42;8.40;;;4.20;;
19543;SDS011;9917;51.256;7.152;2023-07-20T03:40:08;7.93;;;4.32;;
19543;SDS011;9917;51.256;7.152;2023-07-20T03:42:34;8.95;;;4.30;;
19543;SDS011;9917;51.256;7.152;2023-07-20T03:45:00;8.30;;;4.30;;
19543;SDS011;9917;51.256;7.152;2023-07-20T03:47:26;7.90;;;4.40;;
19543;SDS011;9917;51.256;7.152;2023-07-20T03:49:53;7.03;;;4.35;;
19543;SDS011;9917;51.256;7.152;2023-07-20T03:52:19;7.10;;;4.13;;
19543;SDS011;9917;51.256;7.152;2023-07-20T03:54:45;8.05;;;4.00;;
19543;SDS011;9917;51.256;7.152;2023-07-20T03:57:11;8.38;;;4.20;;
19543;SDS011;9917;51.256;7.152;2023-07-20T03:59:37;9.13;;;4.43;;
19543;SDS011;9917;51.256;7.152;2023-07-20T04:02:03;7.70;;;4.47;;
19543;SDS011;9917;51.256;7.152;2023-07-20T04:04:29;7.55;;;4.45;;
19543;SDS011;9917;51.256;7.152;2023-07-20T04:06:57;10.05;;;5.03;;
19543;SDS011;9917;51.256;7.152;2023-07-20T04:09:22;9.57;;;4.80;;
19543;SDS011;9917;51.256;7.152;2023-07-20T04:11:48;8.73;;;4.55;;
19543;SDS011;9917;51.256;7.152;2023-07-20T04:14:14;8.18;;;4.70;;
19543;SDS011;9917;51.256;7.152;2023-07-20T04:16:40;8.88;;;4.63;;
19543;SDS011;9917;51.256;7.152;2023-07-20T04:19:06;7.93;;;4.47;;
19543;SDS011;9917;51.256;7.152;2023-07-20T04:21:32;12.20;;;4.65;;
19543;SDS011;9917;51.256;7.152;2023-07-20T04:24:00;8.45;;;4.35;;
19543;SDS011;9917;51.256;7.152;2023-07-20T04:26:25;7.95;;;4.43;;
19543;SDS011;9917;51.256;7.152;2023-07-20T04:28:51;8.43;;;4.43;;
19543;SDS011;9917;51.256;7.152;2023-07-20T04:31:17;9.98;;;5.18;;
19543;SDS011;9917;51.256;7.152;2023-07-20T04:33:43;9.32;;;5.22;;
19543;SDS011;9917;51.256;7.152;2023-07-20T04:36:09;7.95;;;4.97;;
19543;SDS011;9917;51.256;7.152;2023-07-20T04:38:35;11.18;;;5.35;;
19543;SDS011;9917;51.256;7.152;2023-07-20T04:41:02;13.02;;;5.68;;
19543;SDS011;9917;51.256;7.152;2023-07-20T04:43:28;9.60;;;5.45;;
19543;SDS011;9917;51.256;7.152;2023-07-20T04:45:54;10.80;;;5.88;;
19543;SDS011;9917;51.256;7.152;2023-07-20T04:48:20;11.43;;;6.07;;
19543;SDS011;9917;51.256;7.152;2023-07-20T04:50:46;10.13;;;6.32;;
19543;SDS011;9917;51.256;7.152;2023-07-20T04:53:12;14.35;;;7.18;;
19543;SDS011;9917;51.256;7.152;2023-07-20T04:55:38;13.30;;;7.00;;
19543;SDS011;9917;51.256;7.152;2023-07-20T04:58:05;12.73;;;6.82;;
19543;SDS011;9917;51.256;7.152;2023-07-20T05:00:32;11.35;;;6.68;;
19543;SDS011;9917;51.256;7.152;2023-07-20T05:02:58;12.82;;;7.43;;
19543;SDS011;9917;51.256;7.152;2023-07-20T05:05:24;12.10;;;7.50;;
19543;SDS011;9917;51.256;7.152;2023-07-20T05:07:50;13.00;;;7.28;;
19543;SDS011;9917;51.256;7.152;2023-07-20T05:10:16;11.48;;;7.22;;
19543;SDS011;9917;51.256;7.152;2023-07-20T05:12:42;12.43;;;8.30;;
19543;SDS011;9917;51.256;7.152;2023-07-20T05:15:09;17.08;;;9.43;;
19543;SDS011;9917;51.256;7.152;2023-07-20T05:17:35;16.65;;;9.95;;
19543;SDS011;9917;51.256;7.152;2023-07-20T05:20:01;17.85;;;10.88;;
19543;SDS011;9917;51.256;7.152;2023-07-20T05:22:27;18.50;;;11.70;;
19543;SDS011;9917;51.256;7.152;2023-07-20T05:24:53;22.40;;;12.63;;
19543;SDS011;9917;51.256;7.152;2023-07-20T05:27:19;21.25;;;12.38;;
19543;SDS011;9917;51.256;7.152;2023-07-20T05:29:45;22.23;;;12.65;;
19543;SDS011;9917;51.256;7.152;2023-07-20T05:32:12;18.42;;;12.05;;
19543;SDS011;9917;51.256;7.152;2023-07-20T05:34:38;20.70;;;13.95;;
19543;SDS011;9917;51.256;7.152;2023-07-20T05:37:04;20.85;;;13.85;;
19543;SDS011;9917;51.256;7.152;2023-07-20T05:39:31;19.73;;;12.88;;
19543;SDS011;9917;51.256;7.152;2023-07-20T05:41:57;18.25;;;12.43;;
19543;SDS011;9917;51.256;7.152;2023-07-20T05:44:23;18.55;;;12.82;;
19543;SDS011;9917;51.256;7.152;2023-07-20T05:46:49;19.33;;;13.63;;
19543;SDS011;9917;51.256;7.152;2023-07-20T05:49:16;20.90;;;13.02;;
19543;SDS011;9917;51.256;7.152;2023-07-20T05:51:42;23.08;;;12.82;;
19543;SDS011;9917;51.256;7.152;2023-07-20T05:54:08;20.20;;;13.57;;
19543;SDS011;9917;51.256;7.152;2023-07-20T05:56:34;21.40;;;15.10;;
19543;SDS011;9917;51.256;7.152;2023-07-20T05:59:00;26.05;;;15.77;;
19543;SDS011;9917;51.256;7.152;2023-07-20T06:01:26;26.27;;;16.77;;
19543;SDS011;9917;51.256;7.152;2023-07-20T06:03:52;27.92;;;17.52;;
19543;SDS011;9917;51.256;7.152;2023-07-20T06:06:19;29.92;;;18.75;;
19543;SDS011;9917;51.256;7.152;2023-07-20T06:08:45;31.13;;;20.83;;
19543;SDS011;9917;51.256;7.152;2023-07-20T06:11:11;36.92;;;21.10;;
19543;SDS011;9917;51.256;7.152;2023-07-20T06:13:37;32.13;;;21.15;;
19543;SDS011;9917;51.256;7.152;2023-07-20T06:16:02;32.80;;;21.40;;
19543;SDS011;9917;51.256;7.152;2023-07-20T06:18:28;33.55;;;21.17;;
19543;SDS011;9917;51.256;7.152;2023-07-20T06:20:54;32.85;;;22.15;;
19543;SDS011;9917;51.256;7.152;2023-07-20T06:23:21;39.38;;;23.25;;
19543;SDS011;9917;51.256;7.152;2023-07-20T06:25:47;35.90;;;23.08;;
19543;SDS011;9917;51.256;7.152;2023-07-20T06:28:13;33.25;;;20.90;;
19543;SDS011;9917;51.256;7.152;2023-07-20T06:30:39;33.90;;;22.00;;
19543;SDS011;9917;51.256;7.152;2023-07-20T06:33:05;34.72;;;20.58;;
19543;SDS011;9917;51.256;7.152;2023-07-20T06:35:31;32.60;;;19.25;;
19543;SDS011;9917;51.256;7.152;2023-07-20T06:37:56;28.05;;;18.67;;
19543;SDS011;9917;51.256;7.152;2023-07-20T06:40:23;33.60;;;18.20;;
19543;SDS011;9917;51.256;7.152;2023-07-20T06:42:49;26.65;;;17.80;;
19543;SDS011;9917;51.256;7.152;2023-07-20T06:45:15;27.50;;;17.65;;
19543;SDS011;9917;51.256;7.152;2023-07-20T06:47:41;28.83;;;18.58;;
19543;SDS011;9917;51.256;7.152;2023-07-20T06:50:07;27.50;;;17.70;;
19543;SDS011;9917;51.256;7.152;2023-07-20T06:52:34;26.10;;;17.88;;
19543;SDS011;9917;51.256;7.152;2023-07-20T06:54:59;26.05;;;17.02;;
19543;SDS011;9917;51.256;7.152;2023-07-20T06:57:27;21.58;;;15.30;;
19543;SDS011;9917;51.256;7.152;2023-07-20T06:59:52;25.25;;;14.98;;
19543;SDS011;9917;51.256;7.152;2023-07-20T07:02:18;23.10;;;14.93;;
19543;SDS011;9917;51.256;7.152;2023-07-20T07:04:44;17.52;;;12.80;;
19543;SDS011;9917;51.256;7.152;2023-07-20T07:07:10;12.25;;;8.55;;
19543;SDS011;9917;51.256;7.152;2023-07-20T07:09:36;10.98;;;7.30;;
19543;SDS011;9917;51.256;7.152;2023-07-20T07:12:02;11.10;;;6.57;;
19543;SDS011;9917;51.256;7.152;2023-07-20T07:14:29;8.02;;;5.68;;
19543;SDS011;9917;51.256;7.152;2023-07-20T07:16:55;6.85;;;5.07;;
19543;SDS011;9917;51.256;7.152;2023-07-20T07:19:21;8.50;;;5.78;;
19543;SDS011;9917;51.256;7.152;2023-07-20T07:21:47;6.85;;;4.60;;
19543;SDS011;9917;51.256;7.152;2023-07-20T07:24:12;8.82;;;5.07;;
19543;SDS011;9917;51.256;7.152;2023-07-20T07:26:38;8.10;;;5.35;;
19543;SDS011;9917;51.256;7.152;2023-07-20T07:29:04;7.25;;;5.93;;
19543;SDS011;9917;51.256;7.152;2023-07-20T07:31:33;9.77;;;7.35;;
19543;SDS011;9917;51.256;7.152;2023-07-20T07:33:59;13.15;;;8.00;;
19543;SDS011;9917;51.256;7.152;2023-07-20T07:36:25;9.23;;;7.28;;
19543;SDS011;9917;51.256;7.152;2023-07-20T07:38:51;9.15;;;7.10;;
19543;SDS011;9917;51.256;7.152;2023-07-20T07:41:17;7.38;;;5.22;;
19543;SDS011;9917;51.256;7.152;2023-07-20T07:43:43;7.07;;;5.43;;
19543;SDS011;9917;51.256;7.152;2023-07-20T07:46:09;7.95;;;5.13;;
19543;SDS011;9917;51.256;7.152;2023-07-20T07:48:36;7.95;;;5.35;;
19543;SDS011;9917;51.256;7.152;2023-07-20T07:51:02;7.07;;;4.90;;
19543;SDS011;9917;51.256;7.152;2023-07-20T07:53:28;8.10;;;5.68;;
19543;SDS011;9917;51.256;7.152;2023-07-20T07:55:54;9.05;;;6.00;;
19543;SDS011;9917;51.256;7.152;2023-07-20T07:58:20;7.70;;;4.97;;
19543;SDS011;9917;51.256;7.152;2023-07-20T08:00:46;5.93;;;4.53;;
19543;SDS011;9917;51.256;7.152;2023-07-20T08:03:12;5.75;;;4.63;;
19543;SDS011;9917;51.256;7.152;2023-07-20T08:05:39;7.00;;;5.00;;
19543;SDS011;9917;51.256;7.152;2023-07-20T08:08:05;5.20;;;3.75;;
19543;SDS011;9917;51.256;7.152;2023-07-20T08:10:31;5.75;;;3.75;;
19543;SDS011;9917;51.256;7.152;2023-07-20T08:12:57;3.67;;;2.88;;
19543;SDS011;9917;51.256;7.152;2023-07-20T08:15:22;3.88;;;2.65;;
19543;SDS011;9917;51.256;7.152;2023-07-20T08:17:48;3.38;;;2.47;;
19543;SDS011;9917;51.256;7.152;2023-07-20T08:20:14;3.42;;;2.25;;
19543;SDS011;9917;51.256;7.152;2023-07-20T08:22:41;3.55;;;2.35;;
19543;SDS011;9917;51.256;7.152;2023-07-20T08:25:08;3.72;;;2.53;;
19543;SDS011;9917;51.256;7.152;2023-07-20T08:27:34;2.58;;;1.80;;
19543;SDS011;9917;51.256;7.152;2023-07-20T08:30:00;2.40;;;1.70;;
19543;SDS011;9917;51.256;7.152;2023-07-20T08:32:26;3.33;;;1.50;;
19543;SDS011;9917;51.256;7.152;2023-07-20T08:34:52;1.60;;;1.25;;
19543;SDS011;9917;51.256;7.152;2023-07-20T08:37:18;2.22;;;1.40;;
19543;SDS011;9917;51.256;7.152;2023-07-20T08:39:45;5.25;;;1.80;;
19543;SDS011;9917;51.256;7.152;2023-07-20T08:42:11;3.50;;;1.45;;
19543;SDS011;9917;51.256;7.152;2023-07-20T08:44:39;3.65;;;1.85;;
19543;SDS011;9917;51.256;7.152;2023-07-20T08:47:07;2.17;;;1.52;;
19543;SDS011;9917;51.256;7.152;2023-07-20T08:49:35;1.77;;;1.17;;
19543;SDS011;9917;51.256;7.152;2023-07-20T08:52:01;1.80;;;1.10;;
19543;SDS011;9917;51.256;7.152;2023-07-20T08:54:28;3.17;;;1.60;;
19543;SDS011;9917;51.256;7.152;2023-07-20T08:56:56;1.52;;;1.20;;
19543;SDS011;9917;51.256;7.152;2023-07-20T08:59:25;1.75;;;1.25;;
19543;SDS011;9917;51.256;7.152;2023-07-20T09:01:53;1.90;;;0.98;;
19543;SDS011;9917;51.256;7.152;2023-07-20T09:04:19;1.38;;;0.80;;
19543;SDS011;9917;51.256;7.152;2023-07-20T09:06:45;1.50;;;0.80;;
19543;SDS011;9917;51.256;7.152;2023-07-20T09:09:11;1.17;;;0.50;;
19543;SDS011;9917;51.256;7.152;2023-07-20T09:11:36;0.75;;;0.30;;
19543;SDS011;9917;51.256;7.152;2023-07-20T09:14:05;0.40;;;0.25;;
19543;SDS011;9917;51.256;7.152;2023-07-20T09:16:31;1.73;;;0.20;;
19543;SDS011;9917;51.256;7.152;2023-07-20T09:18:57;0.60;;;0.20;;
19543;SDS011;9917;51.256;7.152;2023-07-20T09:21:23;1.52;;;0.30;;
19543;SDS011;9917;51.256;7.152;2023-07-20T09:23:49;0.65;;;0.35;;
19543;SDS011;9917;51.256;7.152;2023-07-20T09:26:21;1.10;;;0.47;;
19543;SDS011;9917;51.256;7.152;2023-07-20T09:28:47;0.85;;;0.52;;
19543;SDS011;9917;51.256;7.152;2023-07-20T09:31:19;1.00;;;0.60;;
19543;SDS011;9917;51.256;7.152;2023-07-20T09:33:45;2.15;;;1.02;;
19543;SDS011;9917;51.256;7.152;2023-07-20T09:36:12;1.10;;;0.50;;
19543;SDS011;9917;51.256;7.152;2023-07-20T09:38:38;2.95;;;1.20;;
19543;SDS011;9917;51.256;7.152;2023-07-20T09:41:04;1.98;;;0.75;;
19543;SDS011;9917;51.256;7.152;2023-07-20T09:43:30;2.22;;;0.50;;
19543;SDS011;9917;51.256;7.152;2023-07-20T09:45:58;0.60;;;0.32;;
19543;SDS011;9917;51.256;7.152;2023-07-20T09:48:26;0.63;;;0.40;;
19543;SDS011;9917;51.256;7.152;2023-07-20T09:50:52;0.70;;;0.30;;
19543;SDS011;9917;51.256;7.152;2023-07-20T09:53:19;0.88;;;0.30;;
19543;SDS011;9917;51.256;7.152;2023-07-20T09:55:45;1.25;;;0.40;;
19543;SDS011;9917;51.256;7.152;2023-07-20T09:58:11;0.65;;;0.20;;
19543;SDS011;9917;51.256;7.152;2023-07-20T10:00:37;0.40;;;0.10;;
19543;SDS011;9917;51.256;7.152;2023-07-20T10:03:04;0.98;;;0.45;;
19543;SDS011;9917;51.256;7.152;2023-07-20T10:05:33;0.45;;;0.20;;
19543;SDS011;9917;51.256;7.152;2023-07-20T10:08:01;0.82;;;0.47;;
19543;SDS011;9917;51.256;7.152;2023-07-20T10:10:28;0.93;;;0.32;;
19543;SDS011;9917;51.256;7.152;2023-07-20T10:12:55;0.73;;;0.20;;
19543;SDS011;9917;51.256;7.152;2023-07-20T10:15:24;0.82;;;0.30;;
19543;SDS011;9917;51.256;7.152;2023-07-20T10:17:57;1.95;;;0.50;;
19543;SDS011;9917;51.256;7.152;2023-07-20T10:20:27;1.63;;;0.40;;
19543;SDS011;9917;51.256;7.152;2023-07-20T10:22:55;1.52;;;0.43;;
19543;SDS011;9917;51.256;7.152;2023-07-20T10:25:22;1.83;;;0.70;;
19543;SDS011;9917;51.256;7.152;2023-07-20T10:27:48;4.50;;;1.40;;
19543;SDS011;9917;51.256;7.152;2023-07-20T10:30:14;1.60;;;1.00;;
19543;SDS011;9917;51.256;7.152;2023-07-20T10:32:40;1.25;;;0.60;;
19543;SDS011;9917;51.256;7.152;2023-07-20T10:35:11;1.85;;;0.55;;
19543;SDS011;9917;51.256;7.152;2023-07-20T10:37:48;2.40;;;0.70;;
19543;SDS011;9917;51.256;7.152;2023-07-20T10:40:26;1.30;;;0.80;;
19543;SDS011;9917;51.256;7.152;2023-07-20T10:42:56;1.88;;;0.80;;
19543;SDS011;9917;51.256;7.152;2023-07-20T10:45:42;1.50;;;0.80;;
19543;SDS011;9917;51.256;7.152;2023-07-20T10:48:14;3.30;;;0.75;;
19543;SDS011;9917;51.256;7.152;2023-07-20T10:50:41;1.65;;;0.90;;
19543;SDS011;9917;51.256;7.152;2023-07-20T10:53:10;3.67;;;0.60;;
19543;SDS011;9917;51.256;7.152;2023-07-20T10:55:38;5.38;;;0.80;;
19543;SDS011;9917;51.256;7.152;2023-07-20T10:58:08;1.00;;;0.60;;
19543;SDS011;9917;51.256;7.152;2023-07-20T11:00:35;1.42;;;0.52;;
19543;SDS011;9917;51.256;7.152;2023-07-20T11:03:01;1.42;;;0.77;;
19543;SDS011;9917;51.256;7.152;2023-07-20T11:05:34;1.10;;;0.70;;
19543;SDS011;9917;51.256;7.152;2023-07-20T11:08:02;1.42;;;0.52;;
19543;SDS011;9917;51.256;7.152;2023-07-20T11:10:29;2.10;;;0.93;;
19543;SDS011;9917;51.256;7.152;2023-07-20T11:13:17;1.15;;;0.70;;
19543;SDS011;9917;51.256;7.152;2023-07-20T11:15:47;1.60;;;1.00;;
19543;SDS011;9917;51.256;7.152;2023-07-20T11:18:26;3.35;;;1.02;;
19543;SDS011;9917;51.256;7.152;2023-07-20T11:20:52;2.28;;;1.23;;
19543;SDS011;9917;51.256;7.152;2023-07-20T11:23:19;2.35;;;1.20;;
19543;SDS011;9917;51.256;7.152;2023-07-20T11:25:45;3.45;;;1.50;;
19543;SDS011;9917;51.256;7.152;2023-07-20T11:28:11;2.33;;;0.90;;
19543;SDS011;9917;51.256;7.152;2023-07-20T11:30:38;1.50;;;1.05;;
19543;SDS011;9917;51.256;7.152;2023-07-20T11:33:04;2.28;;;1.10;;
19543;SDS011;9917;51.256;7.152;2023-07-20T11:35:30;1.60;;;0.90;;
19543;SDS011;9917;51.256;7.152;2023-07-20T11:37:59;2.92;;;0.80;;
19543;SDS011;9917;51.256;7.152;2023-07-20T11:40:25;1.33;;;0.82;;
19543;SDS011;9917;51.256;7.152;2023-07-20T11:42:51;2.22;;;0.98;;
19543;SDS011;9917;51.256;7.152;2023-07-20T11:45:17;1.65;;;0.90;;
19543;SDS011;9917;51.256;7.152;2023-07-20T11:47:45;2.28;;;0.90;;
19543;SDS011;9917;51.256;7.152;2023-07-20T11:50:11;3.00;;;1.10;;
19543;SDS011;9917;51.256;7.152;2023-07-20T11:52:37;1.20;;;0.82;;
19543;SDS011;9917;51.256;7.152;2023-07-20T11:55:03;3.40;;;1.02;;
19543;SDS011;9917;51.256;7.152;2023-07-20T11:57:30;1.25;;;0.82;;
19543;SDS011;9917;51.256;7.152;2023-07-20T11:59:57;1.40;;;1.00;;
19543;SDS011;9917;51.256;7.152;2023-07-20T12:02:23;1.08;;;0.73;;
19543;SDS011;9917;51.256;7.152;2023-07-20T12:04:50;1.90;;;1.17;;
19543;SDS011;9917;51.256;7.152;2023-07-20T12:07:16;1.73;;;1.10;;
19543;SDS011;9917;51.256;7.152;2023-07-20T12:09:42;4.32;;;2.10;;
19543;SDS011;9917;51.256;7.152;2023-07-20T12:12:09;2.55;;;1.60;;
19543;SDS011;9917;51.256;7.152;2023-07-20T12:14:35;4.05;;;1.52;;
19543;SDS011;9917;51.256;7.152;2023-07-20T12:17:01;4.55;;;2.83;;
19543;SDS011;9917;51.256;7.152;2023-07-20T12:19:27;2.17;;;1.20;;
19543;SDS011;9917;51.256;7.152;2023-07-20T12:21:56;5.47;;;1.20;;
19543;SDS011;9917;51.256;7.152;2023-07-20T12:24:23;3.63;;;1.30;;
19543;SDS011;9917;51.256;7.152;2023-07-20T12:26:49;1.92;;;1.10;;
19543;SDS011;9917;51.256;7.152;2023-07-20T12:29:23;1.33;;;1.13;;
19543;SDS011;9917;51.256;7.152;2023-07-20T12:31:49;1.98;;;1.00;;
19543;SDS011;9917;51.256;7.152;2023-07-20T12:34:15;2.88;;;1.08;;
19543;SDS011;9917;51.256;7.152;2023-07-20T12:36:41;3.35;;;1.10;;
19543;SDS011;9917;51.256;7.152;2023-07-20T12:39:08;2.83;;;1.10;;
19543;SDS011;9917;51.256;7.152;2023-07-20T12:41:34;2.63;;;0.90;;
19543;SDS011;9917;51.256;7.152;2023-07-20T12:44:00;2.35;;;1.10;;
19543;SDS011;9917;51.256;7.152;2023-07-20T12:46:26;2.13;;;0.85;;
19543;SDS011;9917;51.256;7.152;2023-07-20T12:48:52;2.10;;;0.90;;
19543;SDS011;9917;51.256;7.152;2023-07-20T12:51:18;1.42;;;0.68;;
19543;SDS011;9917;51.256;7.152;2023-07-20T12:53:44;3.60;;;2.13;;
19543;SDS011;9917;51.256;7.152;2023-07-20T12:56:11;2.42;;;1.38;;
19543;SDS011;9917;51.256;7.152;2023-07-20T12:58:37;3.05;;;1.00;;
19543;SDS011;9917;51.256;7.152;2023-07-20T13:01:03;1.17;;;0.70;;
19543;SDS011;9917;51.256;7.152;2023-07-20T13:03:29;1.58;;;0.57;;
19543;SDS011;9917;51.256;7.152;2023-07-20T13:05:55;1.15;;;0.52;;
19543;SDS011;9917;51.256;7.152;2023-07-20T13:08:21;1.65;;;0.40;;
19543;SDS011;9917;51.256;7.152;2023-07-20T13:10:47;1.58;;;0.63;;
19543;SDS011;9917;51.256;7.152;2023-07-20T13:13:14;1.40;;;0.80;;
19543;SDS011;9917;51.256;7.152;2023-07-20T13:15:40;1.23;;;0.40;;
19543;SDS011;9917;51.256;7.152;2023-07-20T13:18:07;1.02;;;0.35;;
19543;SDS011;9917;51.256;7.152;2023-07-20T13:20:33;1.58;;;0.50;;
19543;SDS011;9917;51.256;7.152;2023-07-20T13:22:59;2.85;;;1.58;;
19543;SDS011;9917;51.256;7.152;2023-07-20T13:25:25;1.48;;;0.73;;
19543;SDS011;9917;51.256;7.152;2023-07-20T13:27:51;1.33;;;0.50;;
19543;SDS011;9917;51.256;7.152;2023-07-20T13:30:18;0.75;;;0.40;;
19543;SDS011;9917;51.256;7.152;2023-07-20T13:32:44;3.55;;;2.25;;
19543;SDS011;9917;51.256;7.152;2023-07-20T13:35:10;2.08;;;1.00;;
19543;SDS011;9917;51.256;7.152;2023-07-20T13:37:36;2.42;;;1.10;;
19543;SDS011;9917;51.256;7.152;2023-07-20T13:40:03;1.80;;;0.85;;
19543;SDS011;9917;51.256;7.152;2023-07-20T13:42:29;1.52;;;0.60;;
19543;SDS011;9917;51.256;7.152;2023-07-20T13:44:55;1.90;;;0.60;;
19543;SDS011;9917;51.256;7.152;2023-07-20T13:47:22;2.63;;;0.57;;
19543;SDS011;9917;51.256;7.152;2023-07-20T13:49:48;2.35;;;0.50;;
19543;SDS011;9917;51.256;7.152;2023-07-20T13:52:14;2.20;;;0.60;;
19543;SDS011;9917;51.256;7.152;2023-07-20T13:54:40;1.75;;;0.50;;
19543;SDS011;9917;51.256;7.152;2023-07-20T13:57:06;4.15;;;0.77;;
19543;SDS011;9917;51.256;7.152;2023-07-20T13:59:32;1.40;;;0.70;;
19543;SDS011;9917;51.256;7.152;2023-07-20T14:01:58;2.42;;;0.80;;
19543;SDS011;9917;51.256;7.152;2023-07-20T14:04:26;2.05;;;0.77;;
19543;SDS011;9917;51.256;7.152;2023-07-20T14:06:51;2.95;;;1.13;;
19543;SDS011;9917;51.256;7.152;2023-07-20T14:09:17;2.53;;;1.25;;
19543;SDS011;9917;51.256;7.152;2023-07-20T14:11:43;2.53;;;1.10;;
19543;SDS011;9917;51.256;7.152;2023-07-20T14:14:09;2.13;;;0.93;;
19543;SDS011;9917;51.256;7.152;2023-07-20T14:16:35;1.58;;;0.70;;
19543;SDS011;9917;51.256;7.152;2023-07-20T14:19:01;2.08;;;0.70;;
19543;SDS011;9917;51.256;7.152;2023-07-20T14:21:29;1.55;;;0.60;;
19543;SDS011;9917;51.256;7.152;2023-07-20T14:23:54;1.33;;;0.73;;
19543;SDS011;9917;51.256;7.152;2023-07-20T14:26:20;3.53;;;1.08;;
19543;SDS011;9917;51.256;7.152;2023-07-20T14:28:46;3.38;;;1.20;;
19543;SDS011;9917;51.256;7.152;2023-07-20T14:31:12;5.10;;;2.20;;
19543;SDS011;9917;51.256;7.152;2023-07-20T14:33:38;1.95;;;1.00;;
19543;SDS011;9917;51.256;7.152;2023-07-20T14:36:04;5.10;;;2.08;;
19543;SDS011;9917;51.256;7.152;2023-07-20T14:38:33;3.08;;;1.40;;
19543;SDS011;9917;51.256;7.152;2023-07-20T14:40:59;4.47;;;2.00;;
19543;SDS011;9917;51.256;7.152;2023-07-20T14:43:25;3.67;;;1.27;;
19543;SDS011;9917;51.256;7.152;2023-07-20T14:45:51;3.00;;;1.70;;
19543;SDS011;9917;51.256;7.152;2023-07-20T14:48:17;1.77;;;0.90;;
19543;SDS011;9917;51.256;7.152;2023-07-20T14:50:43;2.28;;;1.30;;
19543;SDS011;9917;51.256;7.152;2023-07-20T14:53:09;2.30;;;1.35;;